Time;durP1;ratioP1;P1;durP2;ratioP2;P2;SDS_P1;SDS_P2;PMS_P1;PMS_P2;Temp;Humidity;BMP_temperature;BMP_pressure;BME280_temperature;BME280_humidity;BME280_pressure;Samples;Min_cycle;Max_cycle;Signal;HPM_P1;HPM_P2
2022/07/08 00:01:05;;;;;;;4.25;1.70;;;;;;;13.90;nan;101664.06;4990275;28;20161;-71
2022/07/08 00:03:30;;;;;;;3.60;1.77;;;;;;;13.91;nan;101662.25;5007130;28;20083;-71
2022/07/08 00:05:56;;;;;;;3.80;1.80;;;;;;;13.90;nan;101665.91;5009747;28;20033;-71
2022/07/08 00:08:21;;;;;;;5.65;1.80;;;;;;;13.86;nan;101665.34;5009916;28;20034;-71
2022/07/08 00:10:47;;;;;;;4.05;1.90;;;;;;;13.83;nan;101662.97;5007334;28;20046;-71
2022/07/08 00:13:12;;;;;;;4.78;1.85;;;;;;;13.82;nan;101666.59;5008188;28;20038;-71
2022/07/08 00:15:37;;;;;;;4.30;2.05;;;;;;;13.76;nan;101676.00;5006653;28;20064;-71
2022/07/08 00:18:03;;;;;;;3.53;1.83;;;;;;;13.72;nan;101674.63;5008069;28;20438;-71
2022/07/08 00:20:28;;;;;;;4.72;1.95;;;;;;;13.67;nan;101673.38;5007905;28;20034;-71
2022/07/08 00:22:54;;;;;;;4.20;1.83;;;;;;;13.62;nan;101676.47;4990938;28;20088;-71
2022/07/08 00:25:19;;;;;;;2.80;1.55;;;;;;;13.60;nan;101670.44;5008149;28;20117;-71
2022/07/08 00:27:44;;;;;;;3.85;1.70;;;;;;;13.56;nan;101674.38;5008502;28;20034;-71
2022/07/08 00:30:10;;;;;;;4.07;1.70;;;;;;;13.53;nan;101677.31;5009361;28;20040;-71
2022/07/08 00:32:36;;;;;;;5.55;1.85;;;;;;;13.48;nan;101671.59;5009269;28;20064;-71
2022/07/08 00:35:02;;;;;;;6.00;1.90;;;;;;;13.44;nan;101686.16;5007960;28;20438;-71
2022/07/08 00:37:27;;;;;;;4.80;2.10;;;;;;;13.37;nan;101692.03;5009581;28;20034;-70
2022/07/08 00:39:52;;;;;;;3.42;1.90;;;;;;;13.38;nan;101690.22;5000827;28;20070;-71
2022/07/08 00:42:18;;;;;;;4.40;2.10;;;;;;;13.41;nan;101692.59;5007150;28;20030;-71
2022/07/08 00:44:43;;;;;;;4.32;2.08;;;;;;;13.44;nan;101694.94;5006430;28;20282;-71
2022/07/08 00:47:08;;;;;;;6.13;2.42;;;;;;;13.47;nan;101692.03;5007272;28;20642;-71
2022/07/08 00:49:34;;;;;;;5.60;2.35;;;;;;;13.49;nan;101692.72;5006678;28;20026;-73
2022/07/08 00:51:59;;;;;;;5.15;2.05;;;;;;;13.52;nan;101696.91;5007176;28;20065;-71
2022/07/08 00:54:25;;;;;;;6.13;2.10;;;;;;;13.52;nan;101696.91;5006219;28;20042;-71
2022/07/08 00:56:51;;;;;;;5.40;2.13;;;;;;;13.49;nan;101700.69;5007559;28;20046;-71
2022/07/08 00:59:16;;;;;;;5.07;2.17;;;;;;;13.55;nan;101704.59;5007809;28;20064;-71
2022/07/08 01:01:42;;;;;;;5.43;2.13;;;;;;;13.59;nan;101695.38;5005551;28;20045;-71
2022/07/08 01:04:07;;;;;;;5.25;1.90;;;;;;;13.62;nan;101702.22;5006993;28;20084;-71
2022/07/08 01:06:33;;;;;;;3.55;2.00;;;;;;;13.59;nan;101700.69;5007566;28;20499;-71
2022/07/08 01:08:58;;;;;;;5.30;2.13;;;;;;;13.52;nan;101702.22;5003436;28;20041;-71
2022/07/08 01:11:25;;;;;;;5.60;2.25;;;;;;;13.45;nan;101698.47;5008100;28;20030;-71
2022/07/08 01:13:51;;;;;;;7.03;2.55;;;;;;;13.37;nan;101692.03;5006147;28;20133;-71
2022/07/08 01:16:17;;;;;;;5.53;2.30;;;;;;;13.32;nan;101688.97;5005929;28;20109;-71
2022/07/08 01:18:42;;;;;;;6.68;2.58;;;;;;;13.28;nan;101687.56;5006693;28;20048;-71
2022/07/08 01:21:08;;;;;;;6.30;2.38;;;;;;;13.25;nan;101687.84;5006370;28;20096;-71
2022/07/08 01:23:33;;;;;;;6.80;2.38;;;;;;;13.22;nan;101689.91;5006077;28;20040;-71
2022/07/08 01:26:00;;;;;;;5.88;2.53;;;;;;;13.16;nan;101689.50;5007257;28;20041;-71
2022/07/08 01:28:26;;;;;;;7.53;2.50;;;;;;;13.13;nan;101696.91;4989660;28;20034;-71
2022/07/08 01:30:51;;;;;;;4.15;2.10;;;;;;;13.10;nan;101695.34;5006264;28;20030;-71
2022/07/08 01:33:17;;;;;;;6.03;1.95;;;;;;;13.06;nan;101699.28;5006557;28;20344;-71
2022/07/08 01:35:42;;;;;;;3.78;1.83;;;;;;;12.99;nan;101694.66;5006737;28;20074;-71
2022/07/08 01:38:07;;;;;;;3.25;1.80;;;;;;;12.90;nan;101699.81;5003423;28;20101;-71
2022/07/08 01:40:32;;;;;;;3.72;2.17;;;;;;;12.84;nan;101702.19;5007981;28;20034;-71
2022/07/08 01:42:58;;;;;;;5.47;2.15;;;;;;;12.78;nan;101690.31;5006980;28;20119;-71
2022/07/08 01:45:23;;;;;;;4.32;2.20;;;;;;;12.74;nan;101695.03;5006304;28;20058;-71
2022/07/08 01:47:48;;;;;;;5.88;2.72;;;;;;;12.69;nan;101699.09;5004665;28;20128;-71
2022/07/08 01:50:14;;;;;;;6.28;2.10;;;;;;;12.65;nan;101698.53;5006525;28;20121;-71
2022/07/08 01:52:39;;;;;;;3.80;2.00;;;;;;;12.61;nan;101698.94;5008233;28;20511;-71
2022/07/08 01:55:05;;;;;;;6.38;2.38;;;;;;;12.57;nan;101708.16;5010334;28;20061;-71
2022/07/08 01:57:31;;;;;;;4.72;2.38;;;;;;;12.48;nan;101713.28;5010454;28;20034;-71
2022/07/08 01:59:57;;;;;;;4.13;2.20;;;;;;;12.44;nan;101711.03;5010270;28;20026;-71
2022/07/08 02:02:22;;;;;;;4.45;2.17;;;;;;;12.40;nan;101707.00;4993335;28;20074;-71
2022/07/08 02:04:48;;;;;;;4.95;2.30;;;;;;;12.37;nan;101712.53;5010694;28;20037;-71
2022/07/08 02:07:14;;;;;;;6.78;2.53;;;;;;;12.30;nan;101714.91;5012384;28;20042;-71
2022/07/08 02:09:39;;;;;;;6.47;2.63;;;;;;;12.24;nan;101707.47;5010805;28;20044;-72
2022/07/08 02:12:18;;;;;;;6.00;2.63;;;;;;;12.18;nan;101706.22;5010113;28;20034;-71
2022/07/08 02:15:03;;;;;;;5.10;2.55;;;;;;;12.11;nan;101708.56;5009161;28;20117;-71
2022/07/08 02:17:32;;;;;;;6.13;2.75;;;;;;;12.08;nan;101710.63;5008720;28;20105;-71
2022/07/08 02:19:58;;;;;;;5.53;2.40;;;;;;;12.02;nan;101708.50;5010212;28;20045;-71
2022/07/08 02:22:24;;;;;;;6.00;2.53;;;;;;;11.99;nan;101703.44;5009830;28;20426;-71
2022/07/08 02:24:50;;;;;;;4.03;2.30;;;;;;;11.95;nan;101708.19;5006447;28;20029;-71
2022/07/08 02:27:17;;;;;;;4.32;2.03;;;;;;;11.90;nan;101721.84;5009185;28;20037;-71
2022/07/08 02:29:42;;;;;;;4.57;2.33;;;;;;;11.84;nan;101718.81;5008252;28;20061;-71
2022/07/08 02:32:08;;;;;;;6.90;2.47;;;;;;;11.78;nan;101716.72;5008203;28;20112;-71
2022/07/08 02:34:33;;;;;;;4.18;2.13;;;;;;;11.72;nan;101720.72;5008081;28;20038;-71
2022/07/08 02:36:58;;;;;;;4.63;2.45;;;;;;;11.64;nan;101721.38;5010518;28;20038;-71
2022/07/08 02:39:24;;;;;;;4.57;2.00;;;;;;;11.56;nan;101731.78;5010145;28;20037;-71
2022/07/08 02:41:49;;;;;;;4.85;2.28;;;;;;;11.52;nan;101735.66;5009275;28;20092;-69
2022/07/08 02:44:16;;;;;;;3.75;2.08;;;;;;;11.46;nan;101728.19;5008729;28;20506;-69
2022/07/08 02:46:41;;;;;;;2.75;2.30;;;;;;;11.39;nan;101727.91;5011639;28;20033;-71
2022/07/08 02:49:08;;;;;;;5.05;2.58;;;;;;;11.35;nan;101733.56;5010583;28;20046;-71
2022/07/08 02:51:34;;;;;;;4.43;2.20;;;;;;;11.31;nan;101732.13;5010700;28;20030;-70
2022/07/08 02:54:00;;;;;;;5.55;2.42;;;;;;;11.25;nan;101736.13;5010993;28;20034;-70
2022/07/08 02:56:25;;;;;;;3.53;2.00;;;;;;;11.22;nan;101733.72;5008677;28;20481;-70
2022/07/08 02:58:50;;;;;;;3.60;2.25;;;;;;;11.19;nan;101741.94;5008660;28;20045;-70
2022/07/08 03:01:16;;;;;;;4.45;2.38;;;;;;;11.13;nan;101737.97;5010225;28;20038;-70
2022/07/08 03:03:41;;;;;;;5.43;2.17;;;;;;;11.10;nan;101738.22;5008903;28;20045;-71
2022/07/08 03:06:06;;;;;;;5.85;2.00;;;;;;;11.07;nan;101738.47;5009812;28;20042;-71
2022/07/08 03:08:32;;;;;;;6.13;2.33;;;;;;;11.03;nan;101737.88;5009987;28;20034;-71
2022/07/08 03:10:57;;;;;;;5.88;2.55;;;;;;;11.04;nan;101738.72;5008774;28;20124;-70
2022/07/08 03:13:22;;;;;;;6.93;2.22;;;;;;;11.04;nan;101736.91;5009506;28;20041;-71
2022/07/08 03:15:48;;;;;;;3.65;2.10;;;;;;;11.03;nan;101744.97;4991731;28;20046;-70
2022/07/08 03:18:13;;;;;;;3.90;2.20;;;;;;;11.03;nan;101747.63;5008265;28;20376;-72
2022/07/08 03:20:38;;;;;;;3.05;2.08;;;;;;;11.04;nan;101738.72;5008194;28;20197;-71
2022/07/08 03:23:04;;;;;;;3.63;2.50;;;;;;;11.07;nan;101745.59;5008147;28;20060;-70
2022/07/08 03:25:30;;;;;;;4.03;1.90;;;;;;;11.10;nan;101746.16;5009059;28;20034;-72
2022/07/08 03:27:56;;;;;;;4.20;2.00;;;;;;;11.10;nan;101754.09;5008515;28;20076;-70
2022/07/08 03:30:21;;;;;;;6.70;2.17;;;;;;;11.10;nan;101754.09;5009089;28;20046;-70
2022/07/08 03:32:46;;;;;;;3.63;1.90;;;;;;;11.10;nan;101754.09;5008498;28;20052;-70
2022/07/08 03:35:12;;;;;;;4.22;2.40;;;;;;;11.13;nan;101753.88;5011814;28;20441;-71
2022/07/08 03:37:42;;;;;;;4.28;1.90;;;;;;;11.18;nan;101764.09;5010915;28;20032;-70
2022/07/08 03:42:53;;;;;;;3.53;1.67;;;;;;;11.21;nan;101772.59;5007300;28;20829;-71
2022/07/08 03:45:18;;;;;;;2.75;1.70;;;;;;;11.20;nan;101770.94;5002656;28;20045;-70
2022/07/08 03:47:43;;;;;;;4.90;2.00;;;;;;;11.18;nan;101772.03;5007904;28;20041;-71
2022/07/08 03:50:08;;;;;;;3.40;1.70;;;;;;;11.18;nan;101770.22;5007913;28;20040;-70
2022/07/08 03:52:34;;;;;;;2.42;1.50;;;;;;;11.19;nan;101777.19;5008647;28;20037;-70
2022/07/08 03:54:59;;;;;;;2.78;1.73;;;;;;;11.18;nan;101778.16;5007704;28;20117;-71
2022/07/08 03:57:24;;;;;;;3.15;1.55;;;;;;;11.20;nan;101788.59;5008544;28;20410;-70
2022/07/08 03:59:50;;;;;;;2.92;1.48;;;;;;;11.21;nan;101790.31;5005852;28;20178;-70
2022/07/08 04:02:16;;;;;;;2.55;1.63;;;;;;;11.21;nan;101792.94;5009473;28;20038;-70
2022/07/08 04:04:41;;;;;;;3.85;1.60;;;;;;;11.21;nan;101792.94;5007028;28;20433;-71
2022/07/08 04:07:06;;;;;;;3.78;1.80;;;;;;;11.24;nan;101795.34;5010318;28;20502;-71
2022/07/08 04:09:31;;;;;;;2.90;1.48;;;;;;;11.27;nan;101797.72;5010063;28;20069;-70
2022/07/08 04:11:57;;;;;;;4.35;1.88;;;;;;;11.29;nan;101800.25;5008096;28;20041;-70
2022/07/08 04:14:22;;;;;;;1.92;1.40;;;;;;;11.32;nan;101800.88;5004282;28;20046;-70
2022/07/08 04:16:47;;;;;;;3.83;1.70;;;;;;;11.33;nan;101801.69;5005349;28;20042;-70
2022/07/08 04:19:13;;;;;;;3.05;1.40;;;;;;;11.36;nan;101812.03;5007103;28;20164;-71
2022/07/08 04:21:38;;;;;;;2.80;1.55;;;;;;;11.43;nan;101808.75;5007459;28;20038;-72
2022/07/08 04:24:03;;;;;;;3.33;1.52;;;;;;;11.53;nan;101815.94;5007698;28;20026;-70
2022/07/08 04:26:31;;;;;;;4.10;1.50;;;;;;;11.63;nan;101811.56;5006623;28;20451;-69
2022/07/08 04:29:00;;;;;;;3.03;1.58;;;;;;;11.77;nan;101805.94;5007114;28;20037;-70
2022/07/08 04:31:26;;;;;;;3.95;1.73;;;;;;;11.93;nan;101816.16;5007420;28;20026;-70
2022/07/08 04:33:53;;;;;;;4.88;1.70;;;;;;;12.10;nan;101818.22;5006684;28;20088;-70
2022/07/08 04:36:19;;;;;;;3.65;1.70;;;;;;;12.21;nan;101813.84;5007805;28;20030;-70
2022/07/08 04:38:44;;;;;;;5.85;2.35;;;;;;;12.26;nan;101823.06;5008121;28;20036;-70
2022/07/08 04:41:09;;;;;;;5.97;2.17;;;;;;;12.26;nan;101827.53;5008895;28;20034;-70
2022/07/08 04:43:35;;;;;;;4.90;2.10;;;;;;;12.27;nan;101831.84;5007805;28;20574;-70
2022/07/08 04:46:00;;;;;;;6.03;2.13;;;;;;;12.28;nan;101828.25;5006366;28;20042;-70
2022/07/08 04:48:25;;;;;;;5.10;1.92;;;;;;;12.30;nan;101834.25;5006675;28;20056;-70
2022/07/08 04:50:51;;;;;;;3.40;1.80;;;;;;;12.35;nan;101832.06;5006998;28;20042;-70
2022/07/08 04:53:16;;;;;;;3.40;1.55;;;;;;;12.42;nan;101827.91;4990745;28;20037;-70
2022/07/08 04:55:41;;;;;;;4.80;1.92;;;;;;;12.48;nan;101837.97;5007576;28;20057;-70
2022/07/08 04:58:07;;;;;;;3.25;1.58;;;;;;;12.51;nan;101836.88;5007829;28;20038;-70
2022/07/08 05:00:33;;;;;;;3.25;1.67;;;;;;;12.57;nan;101835.50;5005638;28;20041;-70
2022/07/08 05:02:59;;;;;;;4.32;1.88;;;;;;;12.57;nan;101844.31;4989577;28;20022;-70
2022/07/08 05:05:26;;;;;;;2.95;1.50;;;;;;;12.59;nan;101847.69;5008347;28;20030;-70
2022/07/08 05:07:51;;;;;;;4.82;1.70;;;;;;;12.63;nan;101845.59;5007771;28;20042;-70
2022/07/08 05:10:18;;;;;;;3.65;1.80;;;;;;;12.69;nan;101845.06;5009004;28;20034;-71
2022/07/08 05:12:44;;;;;;;3.55;1.45;;;;;;;12.74;nan;101850.81;5008625;28;20038;-70
2022/07/08 05:15:10;;;;;;;3.03;1.50;;;;;;;12.82;nan;101855.44;5007342;28;20092;-71
2022/07/08 05:17:36;;;;;;;2.75;1.40;;;;;;;12.88;nan;101853.09;5007650;28;20526;-71
2022/07/08 05:20:01;;;;;;;;;;;;;;;12.93;nan;101856.19;5008207;28;20121;-71
2022/07/08 05:22:26;;;;;;;3.40;1.90;;;;;;;13.01;nan;101852.84;5007170;28;19971;-71
2022/07/08 05:24:52;;;;;;;3.38;1.73;;;;;;;13.06;nan;101858.63;5006930;28;20064;-71
2022/07/08 05:27:17;;;;;;;4.97;1.70;;;;;;;13.06;nan;101857.75;5009876;28;20037;-71
2022/07/08 05:29:42;;;;;;;4.22;1.90;;;;;;;13.06;nan;101852.44;5011065;28;20132;-71
2022/07/08 05:32:07;;;;;;;4.07;1.67;;;;;;;13.10;nan;101856.53;5011437;28;20034;-71
2022/07/08 05:34:33;;;;;;;4.10;1.70;;;;;;;13.15;nan;101860.44;5011173;28;20402;-71
2022/07/08 05:36:58;;;;;;;4.03;1.77;;;;;;;13.23;nan;101857.13;5009368;28;20117;-71
2022/07/08 05:39:23;;;;;;;3.73;1.90;;;;;;;13.31;nan;101856.47;5013285;28;20099;-71
2022/07/08 05:41:49;;;;;;;4.05;1.50;;;;;;;13.38;nan;101863.75;5013459;28;20304;-71
2022/07/08 05:44:14;;;;;;;2.67;1.52;;;;;;;13.45;nan;101866.69;5009866;28;20057;-71
2022/07/08 05:46:39;;;;;;;5.53;1.80;;;;;;;13.53;nan;101872.16;5011134;28;20192;-71
2022/07/08 05:49:05;;;;;;;3.20;1.48;;;;;;;13.72;nan;101875.81;5009869;28;20034;-71
2022/07/08 05:51:30;;;;;;;3.35;1.60;;;;;;;13.99;nan;101873.31;5011505;28;20495;-71
2022/07/08 05:53:55;;;;;;;3.33;1.40;;;;;;;14.49;nan;101874.03;5011737;28;20609;-71
2022/07/08 05:56:24;;;;;;;4.47;1.55;;;;;;;14.65;nan;101876.97;5010529;28;20037;-70
2022/07/08 05:58:49;;;;;;;3.65;1.30;;;;;;;14.73;nan;101879.75;5010288;28;20050;-70
2022/07/08 06:01:14;;;;;;;3.50;1.38;;;;;;;14.78;nan;101882.81;5010354;28;20124;-70
2022/07/08 06:03:40;;;;;;;4.88;1.20;;;;;;;14.83;nan;101885.03;4993323;28;20105;-70
2022/07/08 06:06:05;;;;;;;2.78;1.30;;;;;;;15.27;nan;101880.72;5008460;28;20399;-71
2022/07/08 06:08:30;;;;;;;2.17;1.20;;;;;;;16.04;nan;101889.19;5009922;28;20040;-71
2022/07/08 06:10:56;;;;;;;2.03;1.02;;;;;;;16.87;nan;101895.94;5012708;28;20537;-71
2022/07/08 06:13:22;;;;;;;3.40;1.30;;;;;;;17.56;nan;101897.50;5012948;28;20188;-71
2022/07/08 06:15:47;;;;;;;3.40;1.40;;;;;;;18.15;nan;101889.38;5009650;28;20041;-71
2022/07/08 06:18:13;;;;;;;3.90;1.52;;;;;;;18.55;nan;101893.00;5009977;28;20116;-72
2022/07/08 06:20:38;;;;;;;4.28;1.30;;;;;;;18.83;nan;101897.97;5011199;28;20032;-71
2022/07/08 06:23:04;;;;;;;3.58;1.50;;;;;;;19.23;nan;101901.50;5009747;28;20032;-71
2022/07/08 06:25:29;;;;;;;4.78;1.30;;;;;;;19.39;nan;101895.22;5011237;28;20177;-71
2022/07/08 06:27:54;;;;;;;3.97;1.30;;;;;;;19.47;nan;101901.38;5003894;28;20034;-72
2022/07/08 06:30:20;;;;;;;3.25;1.40;;;;;;;19.75;nan;101903.56;5011681;28;20065;-72
2022/07/08 06:32:45;;;;;;;4.93;1.60;;;;;;;20.04;nan;101902.84;5009609;28;20045;-71
2022/07/08 06:35:11;;;;;;;4.90;1.42;;;;;;;20.29;nan;101903.47;5005522;28;20061;-71
2022/07/08 06:37:36;;;;;;;;;;;;;;;20.36;nan;101907.09;5006448;28;20768;-71
2022/07/08 06:40:02;;;;;;;5.00;1.83;;;;;;;20.47;nan;101913.84;5008579;28;19925;-72
2022/07/08 06:42:27;;;;;;;5.18;1.55;;;;;;;20.48;nan;101912.84;4986541;28;20045;-73
2022/07/08 06:44:53;;;;;;;5.25;1.42;;;;;;;20.47;nan;101915.72;5008220;28;20522;-71
2022/07/08 06:47:18;;;;;;;4.13;1.40;;;;;;;20.67;nan;101916.06;5007572;28;20045;-71
2022/07/08 06:49:43;;;;;;;5.07;1.38;;;;;;;20.84;nan;101914.84;4993874;28;20038;-71
2022/07/08 06:52:08;;;;;;;4.32;1.13;;;;;;;20.77;nan;101914.75;4999899;28;20046;-72
2022/07/08 06:54:37;;;;;;;4.75;1.17;;;;;;;20.82;nan;101918.75;5008388;28;20184;-73
2022/07/08 06:57:04;;;;;;;3.45;1.15;;;;;;;20.90;nan;101907.88;5004557;28;20061;-72
2022/07/08 06:59:29;;;;;;;4.05;1.20;;;;;;;21.23;nan;101920.94;5005352;28;20026;-72
2022/07/08 07:01:54;;;;;;;3.63;1.45;;;;;;;21.07;nan;101922.81;5008879;28;20038;-71
2022/07/08 07:04:20;;;;;;;6.30;1.65;;;;;;;20.63;nan;101914.75;5005150;28;20531;-72
2022/07/08 07:06:46;;;;;;;3.25;1.15;;;;;;;20.39;nan;101913.94;5006312;28;20073;-71
2022/07/08 07:09:12;;;;;;;4.50;1.17;;;;;;;20.61;nan;101908.72;5007652;28;20042;-71
2022/07/08 07:11:38;;;;;;;2.38;0.93;;;;;;;20.90;nan;101911.41;5005933;28;20049;-71
2022/07/08 07:14:04;;;;;;;4.93;1.05;;;;;;;21.21;nan;101908.53;4989747;28;20121;-72
2022/07/08 07:16:29;;;;;;;3.90;1.08;;;;;;;21.48;nan;101916.09;5006726;28;20411;-71
2022/07/08 07:18:54;;;;;;;4.63;1.35;;;;;;;21.48;nan;101908.03;5006709;28;20037;-71
2022/07/08 07:21:19;;;;;;;3.88;1.20;;;;;;;21.59;nan;101918.25;4989869;28;20046;-71
2022/07/08 07:23:45;;;;;;;2.70;1.10;;;;;;;21.58;nan;101911.22;5008852;28;20049;-71
2022/07/08 07:26:10;;;;;;;3.67;1.13;;;;;;;21.68;nan;101902.84;5006296;28;20041;-71
2022/07/08 07:28:35;;;;;;;3.58;1.00;;;;;;;22.04;nan;101908.13;5008056;28;20837;-71
2022/07/08 07:31:01;;;;;;;2.85;0.90;;;;;;;22.48;nan;101913.28;4991179;28;20037;-71
2022/07/08 07:33:26;;;;;;;4.63;1.30;;;;;;;22.74;nan;101917.19;5007391;28;20042;-71
2022/07/08 07:35:52;;;;;;;3.13;0.80;;;;;;;22.93;nan;101918.34;5004423;28;20030;-71
2022/07/08 07:38:17;;;;;;;1.85;0.73;;;;;;;23.39;nan;101917.72;5004217;28;20128;-71
2022/07/08 07:40:42;;;;;;;2.90;0.80;;;;;;;23.85;nan;101911.59;5005474;28;20081;-71
2022/07/08 07:43:08;;;;;;;2.60;0.88;;;;;;;23.96;nan;101910.16;5005810;28;20631;-72
2022/07/08 07:45:33;;;;;;;1.52;0.73;;;;;;;24.03;nan;101910.19;5007137;28;20037;-71
2022/07/08 07:47:59;;;;;;;1.73;0.75;;;;;;;24.09;nan;101914.75;5007530;28;20105;-71
2022/07/08 07:50:26;;;;;;;2.78;0.75;;;;;;;23.92;nan;101908.91;5004436;28;20046;-71
2022/07/08 07:52:52;;;;;;;2.50;0.80;;;;;;;23.89;nan;101906.63;5007322;28;20554;-71
2022/07/08 07:55:17;;;;;;;1.67;0.60;;;;;;;24.25;nan;101911.63;5007905;28;20033;-71
2022/07/08 07:57:45;;;;;;;3.05;0.90;;;;;;;24.30;nan;101908.28;5006929;28;20507;-71
2022/07/08 08:00:11;;;;;;;3.05;0.70;;;;;;;24.33;nan;101908.69;5005447;28;20038;-71
2022/07/08 08:02:37;;;;;;;3.25;0.80;;;;;;;24.82;nan;101906.56;5007315;28;20033;-71
2022/07/08 08:05:02;;;;;;;2.22;0.82;;;;;;;25.25;nan;101916.81;5005798;28;20030;-72
2022/07/08 08:07:28;;;;;;;3.63;1.05;;;;;;;25.48;nan;101910.88;5007096;28;20591;-71
2022/07/08 08:09:53;;;;;;;2.10;0.70;;;;;;;25.66;nan;101909.31;5002788;28;20038;-72
2022/07/08 08:12:18;;;;;;;2.27;0.70;;;;;;;26.46;nan;101921.19;5006273;28;20037;-71
2022/07/08 08:14:44;;;;;;;3.22;0.77;;;;;;;26.52;nan;101919.44;5008767;28;20335;-72
2022/07/08 08:17:09;;;;;;;3.72;0.88;;;;;;;25.45;nan;101919.41;5004711;28;20038;-71
2022/07/08 08:19:34;;;;;;;3.13;0.82;;;;;;;24.84;nan;101919.84;5008823;28;20092;-72
2022/07/08 08:21:59;;;;;;;3.15;0.80;;;;;;;24.63;nan;101919.09;5006222;28;20080;-71
2022/07/08 08:24:25;;;;;;;1.88;0.80;;;;;;;24.18;nan;101921.59;5005346;28;20671;-71
2022/07/08 08:26:50;;;;;;;3.22;0.90;;;;;;;23.79;nan;101917.84;5004041;28;20099;-71
2022/07/08 08:29:15;;;;;;;1.75;0.73;;;;;;;23.30;nan;101925.16;5004743;28;20041;-72
2022/07/08 08:31:41;;;;;;;4.00;1.00;;;;;;;22.94;nan;101925.38;5007160;28;20427;-72
2022/07/08 08:34:08;;;;;;;2.28;0.70;;;;;;;23.94;nan;101926.56;5005716;28;20030;-72
2022/07/08 08:36:33;;;;;;;;;;;;;;;25.05;nan;101916.91;5005610;28;20057;-72
2022/07/08 08:38:58;;;;;;;3.40;0.90;;;;;;;25.65;nan;101913.91;5002447;28;19965;-72
2022/07/08 08:41:24;;;;;;;2.47;0.80;;;;;;;26.52;nan;101924.06;5012299;28;20334;-73
2022/07/08 08:43:49;;;;;;;2.08;0.70;;;;;;;28.02;nan;101912.53;5004388;28;20478;-73
2022/07/08 08:46:22;;;;;;;3.55;1.13;;;;;;;28.73;nan;101931.59;5005482;28;20479;-73
2022/07/08 08:48:48;;;;;;;2.00;0.70;;;;;;;28.48;nan;101918.25;5006115;28;20040;-72
2022/07/08 08:51:20;;;;;;;3.42;1.17;;;;;;;27.79;nan;101917.88;5006093;28;20030;-72
2022/07/08 08:53:47;;;;;;;2.90;0.70;;;;;;;28.01;nan;101921.75;5002975;28;20626;-73
2022/07/08 08:56:14;;;;;;;4.18;0.90;;;;;;;28.77;nan;101924.59;5011909;28;20503;-73
2022/07/08 08:58:46;;;;;;;2.42;0.70;;;;;;;28.19;nan;101920.00;5010318;28;20030;-73
2022/07/08 09:01:15;;;;;;;4.75;1.00;;;;;;;26.84;nan;101931.03;5002720;28;20041;-72
2022/07/08 09:03:40;;;;;;;3.13;0.90;;;;;;;26.52;nan;101934.91;5004700;28;20029;-72
2022/07/08 09:06:06;;;;;;;2.78;0.73;;;;;;;26.80;nan;101927.13;4999366;28;20035;-72
2022/07/08 09:08:32;;;;;;;2.53;0.80;;;;;;;26.09;nan;101933.00;5004170;28;20088;-72
2022/07/08 09:10:59;;;;;;;4.03;1.08;;;;;;;25.75;nan;101933.22;5004305;28;20053;-72
2022/07/08 09:13:25;;;;;;;4.93;1.00;;;;;;;24.96;nan;101929.81;4987993;28;20038;-72
2022/07/08 09:15:54;;;;;;;2.92;0.90;;;;;;;24.91;nan;101928.81;4988207;28;20080;-72
2022/07/08 09:18:21;;;;;;;1.95;0.55;;;;;;;26.73;nan;101923.66;5005073;28;20034;-72
2022/07/08 09:20:49;;;;;;;3.10;0.85;;;;;;;26.84;nan;101920.19;5007262;28;20045;-72
2022/07/08 09:23:24;;;;;;;2.10;0.60;;;;;;;26.55;nan;101920.91;5009546;28;20440;-72
2022/07/08 09:25:52;;;;;;;2.03;0.90;;;;;;;25.61;nan;101928.91;5003579;28;20137;-72
2022/07/08 09:28:37;;;;;;;4.95;1.27;;;;;;;24.74;nan;101917.59;4999699;28;20038;-72
2022/07/08 09:31:05;;;;;;;2.22;0.70;;;;;;;25.12;nan;101916.84;5001413;28;20088;-72
2022/07/08 09:33:31;;;;;;;3.28;0.98;;;;;;;25.41;nan;101920.91;5006247;28;20030;-71
2022/07/08 09:36:00;;;;;;;1.85;0.93;;;;;;;24.69;nan;101920.94;5008105;28;20045;-72
2022/07/08 09:38:27;;;;;;;2.50;1.10;;;;;;;24.17;nan;101922.66;5007143;28;20407;-71
2022/07/08 09:40:59;;;;;;;2.72;0.90;;;;;;;24.28;nan;101924.72;5010475;28;20042;-72
2022/07/08 09:43:26;;;;;;;3.05;0.75;;;;;;;23.68;nan;101927.34;5001160;28;20384;-72
2022/07/08 09:45:52;;;;;;;2.67;0.80;;;;;;;24.02;nan;101925.53;5006714;28;20073;-72
2022/07/08 09:48:18;;;;;;;2.75;0.90;;;;;;;25.78;nan;101923.81;5006025;28;20119;-72
2022/07/08 09:50:46;;;;;;;2.42;0.75;;;;;;;27.43;nan;101917.78;5003223;28;20038;-72
2022/07/08 09:53:18;;;;;;;1.60;0.50;;;;;;;29.30;nan;101914.53;4999299;28;20048;-72
2022/07/08 09:55:47;;;;;;;1.75;0.70;;;;;;;30.53;nan;101911.13;5002530;28;20478;-72
2022/07/08 09:58:13;;;;;;;3.33;0.90;;;;;;;30.53;nan;101922.03;5003342;28;20038;-72
2022/07/08 10:00:40;;;;;;;3.30;0.68;;;;;;;30.33;nan;101923.41;5001570;28;20038;-72
2022/07/08 10:03:05;;;;;;;2.65;0.70;;;;;;;29.92;nan;101914.56;5000974;28;20046;-72
2022/07/08 10:05:31;;;;;;;2.45;0.70;;;;;;;29.43;nan;101915.03;5002970;28;20038;-72
2022/07/08 10:07:57;;;;;;;2.13;0.70;;;;;;;28.47;nan;101916.59;5006182;28;20030;-72
2022/07/08 10:10:24;;;;;;;3.35;0.80;;;;;;;27.44;nan;101918.63;5004190;28;20037;-72
2022/07/08 10:12:52;;;;;;;2.72;0.93;;;;;;;26.38;nan;101921.47;5000275;28;20041;-72
2022/07/08 10:15:18;;;;;;;3.50;0.85;;;;;;;27.33;nan;101912.91;4992768;28;20030;-72
2022/07/08 10:17:45;;;;;;;3.13;0.70;;;;;;;28.71;nan;101917.41;5009764;28;20038;-72
2022/07/08 10:20:15;;;;;;;3.15;1.30;;;;;;;29.72;nan;101919.66;5003396;28;20049;-72
2022/07/08 10:22:43;;;;;;;5.88;1.30;;;;;;;30.26;nan;101915.38;5006217;28;20100;-72
2022/07/08 10:25:09;;;;;;;3.30;0.88;;;;;;;30.91;nan;101913.00;5005845;28;20063;-72
2022/07/08 10:27:36;;;;;;;3.47;0.93;;;;;;;31.86;nan;101907.97;5007678;28;20713;-72
2022/07/08 10:30:14;;;;;;;2.25;0.70;;;;;;;32.52;nan;101904.91;5007507;28;20045;-73
2022/07/08 10:32:39;;;;;;;4.03;1.00;;;;;;;32.49;nan;101915.53;4990658;28;20034;-73
2022/07/08 10:35:13;;;;;;;2.47;0.75;;;;;;;32.66;nan;101913.47;4992205;28;20045;-72
2022/07/08 10:37:57;;;;;;;2.13;0.80;;;;;;;32.76;nan;101909.97;5009188;28;20038;-72
2022/07/08 10:40:37;;;;;;;3.15;0.80;;;;;;;33.86;nan;101921.75;5006849;28;20045;-72
2022/07/08 10:43:19;;;;;;;2.75;0.70;;;;;;;34.14;nan;101912.97;4990560;28;20541;-72
2022/07/08 10:46:07;;;;;;;2.15;0.80;;;;;;;33.62;nan;101914.06;5007789;28;20117;-73
2022/07/08 10:48:45;;;;;;;2.90;0.70;;;;;;;33.80;nan;101915.41;5011759;28;20080;-72
2022/07/08 10:51:19;;;;;;;3.03;0.80;;;;;;;34.21;nan;101912.69;5008261;28;20038;-73
2022/07/08 10:54:04;;;;;;;;;;;;;;;34.46;nan;101896.09;5006346;28;20243;-70
2022/07/08 10:56:54;;;;;;;2.40;0.85;;;;;;;35.18;nan;101901.31;5001913;28;20279;-72
2022/07/08 10:59:23;;;;;;;2.70;1.10;;;;;;;35.04;nan;101903.88;5005508;28;20043;-72
2022/07/08 11:02:06;;;;;;;2.00;0.60;;;;;;;35.58;nan;101899.38;5006892;28;20038;-72
2022/07/08 11:04:34;;;;;;;2.40;0.95;;;;;;;35.15;nan;101898.31;5007238;28;20530;-73
2022/07/08 11:07:23;;;;;;;2.15;0.80;;;;;;;34.62;nan;101905.16;5008884;28;20391;-72
2022/07/08 11:09:52;;;;;;;3.30;0.80;;;;;;;34.65;nan;101899.09;5005287;28;20099;-72
2022/07/08 11:12:20;;;;;;;2.58;0.80;;;;;;;34.96;nan;101895.38;5004565;28;20533;-73
2022/07/08 11:14:50;;;;;;;2.25;0.77;;;;;;;35.86;nan;101891.47;5007225;28;20100;-72
2022/07/08 11:17:27;;;;;;;3.43;0.83;;;;;;;36.40;nan;101895.91;5001335;28;20035;-73
2022/07/08 11:19:54;;;;;;;2.47;0.80;;;;;;;36.28;nan;101887.19;5007936;28;20483;-74
2022/07/08 11:22:21;;;;;;;4.25;0.90;;;;;;;36.92;nan;101896.06;5011562;28;20046;-71
2022/07/08 11:24:48;;;;;;;2.65;1.00;;;;;;;37.76;nan;101893.44;4993751;28;20567;-70
2022/07/08 11:27:15;;;;;;;1.77;0.68;;;;;;;37.96;nan;101886.69;5010860;28;20034;-71
2022/07/08 11:29:48;;;;;;;2.63;0.80;;;;;;;37.66;nan;101882.53;5011493;28;20177;-73
2022/07/08 11:32:13;;;;;;;2.25;0.88;;;;;;;37.54;nan;101872.00;5010250;28;20030;-71
2022/07/08 11:34:39;;;;;;;2.85;0.70;;;;;;;36.81;nan;101876.09;5011286;28;20518;-73
2022/07/08 11:37:04;;;;;;;2.28;0.70;;;;;;;37.12;nan;101879.25;5011191;28;20068;-74
2022/07/08 11:39:29;;;;;;;3.47;1.00;;;;;;;36.51;nan;101875.34;5010949;28;20118;-73
2022/07/08 11:41:55;;;;;;;3.28;0.95;;;;;;;35.88;nan;101875.50;5010670;28;20148;-73
2022/07/08 11:44:21;;;;;;;3.22;0.90;;;;;;;35.85;nan;101867.78;4989793;28;20054;-73